LEMGLEZL

Guest
Details From LEMG - Malaga
To LEZL - Sevilla
Flight Number -
Tags generated
Created
Modified
Stats Distance 82 nm / 151 km
Max Altitude 10,800 ft / 3,292 m
Waypoints 3
Social Downloads 20
Likes 0
Share VATSIM

Download

Looking for another format? Having issues loading an existing format? Contact us
Advertisement - Login to hide

Notes

Basic altitude profile: - Ascent Rate: 2500ft/min - Ascent Speed: 250kts - Cruise Altitude: 35000ft - Cruise Speed: 420kts - Descent Rate: 1500ft/min - Descent Speed: 250kts Options: - Use NATs: yes - Use PACOTS: yes - Use low airways: yes - Use high airways: yes

Route

LEMG MAR LEZL

ID Type Via Altitude Latitude Longitude Leg Dist Tot Dist Heading (true) Name
O LEMG APT - 0 ft / 0 m 36.67978˚ -4.49590˚ - 0 nm - Malaga
MAR VOR - 10,800 ft / 3,292 m 37.05532˚ -4.93989˚ 31 nm 31 nm 317° / 316° MARTIN VOR-DME
O LEZL APT - 0 ft / 0 m 37.41794˚ -5.89309˚ 50 nm 81 nm 296° / 295° Sevilla

Altitude Profile

Advertisement - Login to hide

LEMG

Details ICAO LEMG (AGP)
Name Malaga
Region Spain
Timezone Europe/Madrid (UTC+2.0)
Stats Elevation 52 ft / 16 m (AMSL)
Location 36.679780° -4.495899°
Runways 2
Magnetic Variation 0.827° W

METAR

LEMG 221400Z 13010KT 100V160 9999 FEW040 23/14 Q1014 NOSIG

Decode

TAF

TAF LEMG 221100Z 2212/2312 16006KT CAVOK TX23/2214Z TN14/2305Z

Decode

Departure Runways

ID Width Length Bearing (true) Bearing (mag) Surface Threshold Offset Overrun Length
12 148 ft / 45 m 10,057 ft / 3,065 m 117.76° 118.59° Asphalt 0 ft / 0 m 650 ft / 198 m
13 148 ft / 45 m 10,509 ft / 3,203 m 131.69° 132.52° Asphalt 0 ft / 0 m 246 ft / 75 m
30 148 ft / 45 m 10,057 ft / 3,065 m 297.78° 298.61° Asphalt 1,115 ft / 340 m 466 ft / 142 m
31 148 ft / 45 m 10,509 ft / 3,203 m 311.70° 312.53° Asphalt 0 ft / 0 m 246 ft / 75 m

LEZL

Details ICAO LEZL (SVQ)
Name Sevilla
Region Spain
Timezone Europe/Madrid (UTC+2.0)
Stats Elevation 111 ft / 34 m (AMSL)
Location 37.417939° -5.893093°
Runways 1
Magnetic Variation 1.245° W

METAR

LEZL 221400Z 32004KT 230V010 9999 FEW045 25/13 Q1014 NOSIG

Decode

TAF

TAF LEZL 221400Z 2215/2315 24004KT CAVOK TX27/2216Z TN15/2305Z

Decode

Destination Runways

ID Width Length Bearing (true) Bearing (mag) Surface Threshold Offset Overrun Length
09 148 ft / 45 m 11,008 ft / 3,355 m 89.75° 91.00° Asphalt 0 ft / 0 m 0 ft / 0 m
27 148 ft / 45 m 11,008 ft / 3,355 m 269.77° 271.02° Asphalt 0 ft / 0 m 0 ft / 0 m

Approach Navaids

Runway Type Ident Frequency Range Bearing (true) Bearing (mag) Slope Elevation
09 Localiser ISE 111.10 MHz 18 nm / 33 km 89.77° 91.02° - 111 ft / 34 m (AMSL)
09 Glidescope ISE 111.10 MHz 10 nm / 19 km 89.76° 91.00° 3.00° 111 ft / 34 m (AMSL)
09 DME ISE 111.10 MHz 18 nm / 33 km - - - 102 ft / 31 m (AMSL)
27 Localiser ISV 110.10 MHz 18 nm / 33 km 269.74° 270.99° - 111 ft / 34 m (AMSL)
27 Glidescope ISV 110.10 MHz 10 nm / 19 km 269.76° 271.00° 3.00° 22 ft / 7 m (AMSL)
27 DME ISV 110.10 MHz 18 nm / 33 km - - - 22 ft / 7 m (AMSL)

Popular Alternatives